sensor_id;sensor_type;location;lat;lon;timestamp;P1;durP1;ratioP1;P2;durP2;ratioP2
10945;SDS011;5525;42.648;23.368;2022-10-31T00:01:11;5.97;;;3.80;;
10945;SDS011;5525;42.648;23.368;2022-10-31T00:03:39;4.57;;;3.65;;
10945;SDS011;5525;42.648;23.368;2022-10-31T00:06:06;4.78;;;3.28;;
10945;SDS011;5525;42.648;23.368;2022-10-31T00:08:33;5.03;;;3.30;;
10945;SDS011;5525;42.648;23.368;2022-10-31T00:11:01;4.30;;;3.53;;
10945;SDS011;5525;42.648;23.368;2022-10-31T00:13:28;4.43;;;3.80;;
10945;SDS011;5525;42.648;23.368;2022-10-31T00:15:55;6.90;;;3.65;;
10945;SDS011;5525;42.648;23.368;2022-10-31T00:18:23;7.03;;;3.80;;
10945;SDS011;5525;42.648;23.368;2022-10-31T00:20:57;4.30;;;3.42;;
10945;SDS011;5525;42.648;23.368;2022-10-31T00:23:25;5.90;;;3.80;;
10945;SDS011;5525;42.648;23.368;2022-10-31T00:25:52;5.65;;;3.90;;
10945;SDS011;5525;42.648;23.368;2022-10-31T00:28:19;3.97;;;3.58;;
10945;SDS011;5525;42.648;23.368;2022-10-31T00:30:46;3.90;;;3.30;;
10945;SDS011;5525;42.648;23.368;2022-10-31T00:33:12;6.35;;;3.55;;
10945;SDS011;5525;42.648;23.368;2022-10-31T00:35:41;6.28;;;3.88;;
10945;SDS011;5525;42.648;23.368;2022-10-31T00:38:07;6.63;;;3.80;;
10945;SDS011;5525;42.648;23.368;2022-10-31T00:40:34;4.93;;;3.67;;
10945;SDS011;5525;42.648;23.368;2022-10-31T00:43:01;6.68;;;3.63;;
10945;SDS011;5525;42.648;23.368;2022-10-31T00:45:28;5.90;;;3.58;;
10945;SDS011;5525;42.648;23.368;2022-10-31T00:47:55;5.95;;;3.60;;
10945;SDS011;5525;42.648;23.368;2022-10-31T00:50:21;5.78;;;3.45;;
10945;SDS011;5525;42.648;23.368;2022-10-31T00:52:50;4.10;;;3.63;;
10945;SDS011;5525;42.648;23.368;2022-10-31T00:55:16;5.82;;;3.78;;
10945;SDS011;5525;42.648;23.368;2022-10-31T00:57:45;5.03;;;3.90;;
10945;SDS011;5525;42.648;23.368;2022-10-31T01:00:12;7.65;;;3.95;;
10945;SDS011;5525;42.648;23.368;2022-10-31T01:02:39;6.13;;;3.35;;
10945;SDS011;5525;42.648;23.368;2022-10-31T01:05:06;5.63;;;3.63;;
10945;SDS011;5525;42.648;23.368;2022-10-31T01:07:35;5.70;;;3.60;;
10945;SDS011;5525;42.648;23.368;2022-10-31T01:10:04;5.28;;;3.83;;
10945;SDS011;5525;42.648;23.368;2022-10-31T01:12:35;4.35;;;3.58;;
10945;SDS011;5525;42.648;23.368;2022-10-31T01:15:02;5.53;;;3.88;;
10945;SDS011;5525;42.648;23.368;2022-10-31T01:17:30;5.00;;;3.90;;
10945;SDS011;5525;42.648;23.368;2022-10-31T01:19:57;6.47;;;3.65;;
10945;SDS011;5525;42.648;23.368;2022-10-31T01:22:24;6.95;;;3.80;;
10945;SDS011;5525;42.648;23.368;2022-10-31T01:24:51;5.85;;;3.88;;
10945;SDS011;5525;42.648;23.368;2022-10-31T01:27:19;5.50;;;3.75;;
10945;SDS011;5525;42.648;23.368;2022-10-31T01:29:46;5.40;;;3.92;;
10945;SDS011;5525;42.648;23.368;2022-10-31T01:32:13;6.30;;;3.95;;
10945;SDS011;5525;42.648;23.368;2022-10-31T01:34:40;7.70;;;4.00;;
10945;SDS011;5525;42.648;23.368;2022-10-31T01:37:06;5.68;;;3.83;;
10945;SDS011;5525;42.648;23.368;2022-10-31T01:39:33;5.70;;;4.38;;
10945;SDS011;5525;42.648;23.368;2022-10-31T01:42:00;5.85;;;4.03;;
10945;SDS011;5525;42.648;23.368;2022-10-31T01:47:20;6.97;;;4.50;;
10945;SDS011;5525;42.648;23.368;2022-10-31T01:49:54;6.95;;;4.75;;
10945;SDS011;5525;42.648;23.368;2022-10-31T01:52:25;6.88;;;4.68;;
10945;SDS011;5525;42.648;23.368;2022-10-31T01:54:58;6.20;;;5.10;;
10945;SDS011;5525;42.648;23.368;2022-10-31T01:57:27;7.25;;;4.57;;
10945;SDS011;5525;42.648;23.368;2022-10-31T01:59:59;7.00;;;4.95;;
10945;SDS011;5525;42.648;23.368;2022-10-31T02:02:29;8.00;;;5.25;;
10945;SDS011;5525;42.648;23.368;2022-10-31T02:04:58;10.98;;;6.07;;
10945;SDS011;5525;42.648;23.368;2022-10-31T02:07:27;8.63;;;5.47;;
10945;SDS011;5525;42.648;23.368;2022-10-31T02:10:00;9.25;;;5.30;;
10945;SDS011;5525;42.648;23.368;2022-10-31T02:12:28;7.47;;;5.15;;
10945;SDS011;5525;42.648;23.368;2022-10-31T02:14:56;7.70;;;5.70;;
10945;SDS011;5525;42.648;23.368;2022-10-31T02:17:25;9.38;;;5.50;;
10945;SDS011;5525;42.648;23.368;2022-10-31T02:19:53;7.78;;;5.13;;
10945;SDS011;5525;42.648;23.368;2022-10-31T02:22:27;8.00;;;4.60;;
10945;SDS011;5525;42.648;23.368;2022-10-31T02:25:09;7.72;;;4.72;;
10945;SDS011;5525;42.648;23.368;2022-10-31T02:28:00;7.40;;;4.65;;
10945;SDS011;5525;42.648;23.368;2022-10-31T02:30:52;9.07;;;5.45;;
10945;SDS011;5525;42.648;23.368;2022-10-31T02:33:32;11.20;;;6.05;;
10945;SDS011;5525;42.648;23.368;2022-10-31T02:36:09;23.77;;;5.95;;
10945;SDS011;5525;42.648;23.368;2022-10-31T02:38:44;12.07;;;5.80;;
10945;SDS011;5525;42.648;23.368;2022-10-31T02:41:18;11.77;;;5.65;;
10945;SDS011;5525;42.648;23.368;2022-10-31T02:43:55;19.15;;;5.57;;
10945;SDS011;5525;42.648;23.368;2022-10-31T02:46:30;9.80;;;5.47;;
10945;SDS011;5525;42.648;23.368;2022-10-31T02:49:02;13.15;;;5.22;;
10945;SDS011;5525;42.648;23.368;2022-10-31T02:51:33;8.18;;;5.05;;
10945;SDS011;5525;42.648;23.368;2022-10-31T02:54:00;9.18;;;5.15;;
10945;SDS011;5525;42.648;23.368;2022-10-31T02:56:28;10.13;;;5.68;;
10945;SDS011;5525;42.648;23.368;2022-10-31T02:58:55;11.23;;;6.53;;
10945;SDS011;5525;42.648;23.368;2022-10-31T03:01:31;11.20;;;6.30;;
10945;SDS011;5525;42.648;23.368;2022-10-31T03:04:13;11.50;;;6.90;;
10945;SDS011;5525;42.648;23.368;2022-10-31T03:06:53;14.20;;;9.18;;
10945;SDS011;5525;42.648;23.368;2022-10-31T03:09:24;11.10;;;7.68;;
10945;SDS011;5525;42.648;23.368;2022-10-31T03:11:57;14.18;;;6.90;;
10945;SDS011;5525;42.648;23.368;2022-10-31T03:14:31;12.20;;;7.60;;
10945;SDS011;5525;42.648;23.368;2022-10-31T03:17:05;12.25;;;7.70;;
10945;SDS011;5525;42.648;23.368;2022-10-31T03:19:37;12.98;;;8.25;;
10945;SDS011;5525;42.648;23.368;2022-10-31T03:22:10;14.57;;;8.20;;
10945;SDS011;5525;42.648;23.368;2022-10-31T03:24:42;11.93;;;7.93;;
10945;SDS011;5525;42.648;23.368;2022-10-31T03:27:11;14.35;;;10.70;;
10945;SDS011;5525;42.648;23.368;2022-10-31T03:29:41;15.57;;;13.98;;
10945;SDS011;5525;42.648;23.368;2022-10-31T03:32:12;13.63;;;10.15;;
10945;SDS011;5525;42.648;23.368;2022-10-31T03:34:41;12.50;;;8.23;;
10945;SDS011;5525;42.648;23.368;2022-10-31T03:37:10;14.45;;;8.00;;
10945;SDS011;5525;42.648;23.368;2022-10-31T03:39:41;12.15;;;7.15;;
10945;SDS011;5525;42.648;23.368;2022-10-31T03:42:11;15.95;;;9.05;;
10945;SDS011;5525;42.648;23.368;2022-10-31T03:44:41;13.27;;;7.72;;
10945;SDS011;5525;42.648;23.368;2022-10-31T03:47:12;11.05;;;7.80;;
10945;SDS011;5525;42.648;23.368;2022-10-31T03:49:39;9.88;;;6.93;;
10945;SDS011;5525;42.648;23.368;2022-10-31T03:52:07;13.32;;;6.82;;
10945;SDS011;5525;42.648;23.368;2022-10-31T03:54:44;11.00;;;7.18;;
10945;SDS011;5525;42.648;23.368;2022-10-31T03:57:14;12.10;;;7.47;;
10945;SDS011;5525;42.648;23.368;2022-10-31T03:59:48;13.88;;;8.32;;
10945;SDS011;5525;42.648;23.368;2022-10-31T04:02:22;13.82;;;9.25;;
10945;SDS011;5525;42.648;23.368;2022-10-31T04:04:52;10.43;;;7.85;;
10945;SDS011;5525;42.648;23.368;2022-10-31T04:07:20;14.02;;;8.05;;
10945;SDS011;5525;42.648;23.368;2022-10-31T04:09:50;10.70;;;6.97;;
10945;SDS011;5525;42.648;23.368;2022-10-31T04:12:20;9.57;;;6.97;;
10945;SDS011;5525;42.648;23.368;2022-10-31T04:14:50;13.73;;;6.55;;
10945;SDS011;5525;42.648;23.368;2022-10-31T04:17:19;8.57;;;6.57;;
10945;SDS011;5525;42.648;23.368;2022-10-31T04:19:53;9.65;;;6.43;;
10945;SDS011;5525;42.648;23.368;2022-10-31T04:22:20;8.90;;;6.40;;
10945;SDS011;5525;42.648;23.368;2022-10-31T04:24:47;10.45;;;6.78;;
10945;SDS011;5525;42.648;23.368;2022-10-31T04:27:14;9.15;;;6.72;;
10945;SDS011;5525;42.648;23.368;2022-10-31T04:29:41;8.45;;;6.75;;
10945;SDS011;5525;42.648;23.368;2022-10-31T04:32:08;9.77;;;6.63;;
10945;SDS011;5525;42.648;23.368;2022-10-31T04:34:36;12.50;;;7.38;;
10945;SDS011;5525;42.648;23.368;2022-10-31T04:37:03;9.93;;;6.70;;
10945;SDS011;5525;42.648;23.368;2022-10-31T04:39:30;9.48;;;6.03;;
10945;SDS011;5525;42.648;23.368;2022-10-31T04:41:56;9.13;;;6.55;;
10945;SDS011;5525;42.648;23.368;2022-10-31T04:44:23;10.30;;;6.90;;
10945;SDS011;5525;42.648;23.368;2022-10-31T04:46:50;8.13;;;6.50;;
10945;SDS011;5525;42.648;23.368;2022-10-31T04:49:17;9.18;;;5.90;;
10945;SDS011;5525;42.648;23.368;2022-10-31T04:51:45;10.50;;;6.18;;
10945;SDS011;5525;42.648;23.368;2022-10-31T04:54:12;10.43;;;6.72;;
10945;SDS011;5525;42.648;23.368;2022-10-31T04:56:38;11.02;;;6.75;;
10945;SDS011;5525;42.648;23.368;2022-10-31T04:59:06;10.40;;;7.35;;
10945;SDS011;5525;42.648;23.368;2022-10-31T05:01:33;10.05;;;7.75;;
10945;SDS011;5525;42.648;23.368;2022-10-31T05:04:00;13.13;;;8.00;;
10945;SDS011;5525;42.648;23.368;2022-10-31T05:06:27;11.48;;;7.97;;
10945;SDS011;5525;42.648;23.368;2022-10-31T05:08:55;13.88;;;8.38;;
10945;SDS011;5525;42.648;23.368;2022-10-31T05:11:22;10.73;;;8.02;;
10945;SDS011;5525;42.648;23.368;2022-10-31T05:13:49;12.23;;;7.40;;
10945;SDS011;5525;42.648;23.368;2022-10-31T05:16:16;14.20;;;9.50;;
10945;SDS011;5525;42.648;23.368;2022-10-31T05:18:43;13.95;;;7.03;;
10945;SDS011;5525;42.648;23.368;2022-10-31T05:21:10;12.85;;;7.30;;
10945;SDS011;5525;42.648;23.368;2022-10-31T05:23:37;11.38;;;7.35;;
10945;SDS011;5525;42.648;23.368;2022-10-31T05:26:05;13.68;;;9.57;;
10945;SDS011;5525;42.648;23.368;2022-10-31T05:28:32;12.38;;;8.60;;
10945;SDS011;5525;42.648;23.368;2022-10-31T05:30:59;13.15;;;8.77;;
10945;SDS011;5525;42.648;23.368;2022-10-31T05:33:26;15.50;;;9.10;;
10945;SDS011;5525;42.648;23.368;2022-10-31T05:35:53;17.40;;;9.85;;
10945;SDS011;5525;42.648;23.368;2022-10-31T05:38:19;13.50;;;8.88;;
10945;SDS011;5525;42.648;23.368;2022-10-31T05:40:46;23.95;;;10.77;;
10945;SDS011;5525;42.648;23.368;2022-10-31T05:43:14;14.05;;;10.63;;
10945;SDS011;5525;42.648;23.368;2022-10-31T05:45:41;15.00;;;11.00;;
10945;SDS011;5525;42.648;23.368;2022-10-31T05:48:08;14.57;;;10.38;;
10945;SDS011;5525;42.648;23.368;2022-10-31T05:50:36;11.98;;;9.20;;
10945;SDS011;5525;42.648;23.368;2022-10-31T05:53:03;18.08;;;10.18;;
10945;SDS011;5525;42.648;23.368;2022-10-31T05:55:31;12.73;;;9.15;;
10945;SDS011;5525;42.648;23.368;2022-10-31T05:57:58;37.17;;;11.25;;
10945;SDS011;5525;42.648;23.368;2022-10-31T06:00:27;14.82;;;9.00;;
10945;SDS011;5525;42.648;23.368;2022-10-31T06:02:57;15.25;;;10.50;;
10945;SDS011;5525;42.648;23.368;2022-10-31T06:05:25;24.73;;;16.77;;
10945;SDS011;5525;42.648;23.368;2022-10-31T06:07:52;21.50;;;12.82;;
10945;SDS011;5525;42.648;23.368;2022-10-31T06:10:19;12.90;;;9.40;;
10945;SDS011;5525;42.648;23.368;2022-10-31T06:12:46;20.90;;;9.45;;
10945;SDS011;5525;42.648;23.368;2022-10-31T06:15:13;12.85;;;9.15;;
10945;SDS011;5525;42.648;23.368;2022-10-31T06:17:42;15.27;;;9.60;;
10945;SDS011;5525;42.648;23.368;2022-10-31T06:20:10;22.15;;;13.27;;
10945;SDS011;5525;42.648;23.368;2022-10-31T06:22:37;14.15;;;11.07;;
10945;SDS011;5525;42.648;23.368;2022-10-31T06:25:04;23.58;;;12.00;;
10945;SDS011;5525;42.648;23.368;2022-10-31T06:27:31;24.10;;;12.52;;
10945;SDS011;5525;42.648;23.368;2022-10-31T06:29:58;21.92;;;12.05;;
10945;SDS011;5525;42.648;23.368;2022-10-31T06:32:25;31.88;;;20.55;;
10945;SDS011;5525;42.648;23.368;2022-10-31T06:34:53;23.92;;;19.15;;
10945;SDS011;5525;42.648;23.368;2022-10-31T06:37:20;24.13;;;17.08;;
10945;SDS011;5525;42.648;23.368;2022-10-31T06:39:47;17.90;;;15.25;;
10945;SDS011;5525;42.648;23.368;2022-10-31T06:42:14;20.30;;;13.40;;
10945;SDS011;5525;42.648;23.368;2022-10-31T06:44:41;17.00;;;12.52;;
10945;SDS011;5525;42.648;23.368;2022-10-31T06:47:08;16.60;;;12.27;;
10945;SDS011;5525;42.648;23.368;2022-10-31T06:49:36;19.45;;;13.05;;
10945;SDS011;5525;42.648;23.368;2022-10-31T06:52:04;21.83;;;12.77;;
10945;SDS011;5525;42.648;23.368;2022-10-31T06:54:31;20.50;;;12.30;;
10945;SDS011;5525;42.648;23.368;2022-10-31T06:56:58;29.55;;;12.63;;
10945;SDS011;5525;42.648;23.368;2022-10-31T06:59:24;20.83;;;13.23;;
10945;SDS011;5525;42.648;23.368;2022-10-31T07:01:51;21.55;;;12.15;;
10945;SDS011;5525;42.648;23.368;2022-10-31T07:04:18;16.83;;;12.57;;
10945;SDS011;5525;42.648;23.368;2022-10-31T07:06:45;21.90;;;12.82;;
10945;SDS011;5525;42.648;23.368;2022-10-31T07:09:13;17.00;;;12.18;;
10945;SDS011;5525;42.648;23.368;2022-10-31T07:11:40;21.15;;;12.43;;
10945;SDS011;5525;42.648;23.368;2022-10-31T07:14:07;18.33;;;12.30;;
10945;SDS011;5525;42.648;23.368;2022-10-31T07:16:33;16.77;;;12.82;;
10945;SDS011;5525;42.648;23.368;2022-10-31T07:19:00;19.00;;;13.45;;
10945;SDS011;5525;42.648;23.368;2022-10-31T07:21:27;18.17;;;13.77;;
10945;SDS011;5525;42.648;23.368;2022-10-31T07:23:54;20.15;;;12.82;;
10945;SDS011;5525;42.648;23.368;2022-10-31T07:26:22;19.65;;;12.90;;
10945;SDS011;5525;42.648;23.368;2022-10-31T07:28:49;18.38;;;13.07;;
10945;SDS011;5525;42.648;23.368;2022-10-31T07:31:16;17.33;;;12.63;;
10945;SDS011;5525;42.648;23.368;2022-10-31T07:33:43;17.52;;;12.70;;
10945;SDS011;5525;42.648;23.368;2022-10-31T07:36:10;16.13;;;13.27;;
10945;SDS011;5525;42.648;23.368;2022-10-31T07:38:37;16.27;;;13.00;;
10945;SDS011;5525;42.648;23.368;2022-10-31T07:41:04;18.30;;;12.30;;
10945;SDS011;5525;42.648;23.368;2022-10-31T07:43:32;28.15;;;14.27;;
10945;SDS011;5525;42.648;23.368;2022-10-31T07:45:59;17.75;;;13.45;;
10945;SDS011;5525;42.648;23.368;2022-10-31T07:48:26;16.58;;;13.38;;
10945;SDS011;5525;42.648;23.368;2022-10-31T07:50:53;20.13;;;14.48;;
10945;SDS011;5525;42.648;23.368;2022-10-31T07:53:21;20.08;;;13.98;;
10945;SDS011;5525;42.648;23.368;2022-10-31T07:55:48;22.50;;;13.23;;
10945;SDS011;5525;42.648;23.368;2022-10-31T07:58:15;17.67;;;13.38;;
10945;SDS011;5525;42.648;23.368;2022-10-31T08:00:45;25.80;;;13.90;;
10945;SDS011;5525;42.648;23.368;2022-10-31T08:03:13;17.50;;;13.93;;
10945;SDS011;5525;42.648;23.368;2022-10-31T08:05:42;21.42;;;15.98;;
10945;SDS011;5525;42.648;23.368;2022-10-31T08:08:11;18.50;;;13.57;;
10945;SDS011;5525;42.648;23.368;2022-10-31T08:10:38;23.42;;;13.95;;
10945;SDS011;5525;42.648;23.368;2022-10-31T08:13:06;16.58;;;13.40;;
10945;SDS011;5525;42.648;23.368;2022-10-31T08:15:34;18.67;;;13.18;;
10945;SDS011;5525;42.648;23.368;2022-10-31T08:18:05;16.92;;;13.27;;
10945;SDS011;5525;42.648;23.368;2022-10-31T08:20:33;20.85;;;13.93;;
10945;SDS011;5525;42.648;23.368;2022-10-31T08:23:00;19.70;;;13.43;;
10945;SDS011;5525;42.648;23.368;2022-10-31T08:25:29;19.67;;;14.32;;
10945;SDS011;5525;42.648;23.368;2022-10-31T08:27:57;18.42;;;14.50;;
10945;SDS011;5525;42.648;23.368;2022-10-31T08:30:25;18.90;;;14.35;;
10945;SDS011;5525;42.648;23.368;2022-10-31T08:32:57;17.42;;;13.98;;
10945;SDS011;5525;42.648;23.368;2022-10-31T08:35:26;18.17;;;14.18;;
10945;SDS011;5525;42.648;23.368;2022-10-31T08:37:53;19.13;;;14.40;;
10945;SDS011;5525;42.648;23.368;2022-10-31T08:40:20;19.50;;;13.85;;
10945;SDS011;5525;42.648;23.368;2022-10-31T08:42:54;18.98;;;13.55;;
10945;SDS011;5525;42.648;23.368;2022-10-31T08:45:21;22.23;;;14.07;;
10945;SDS011;5525;42.648;23.368;2022-10-31T08:47:48;16.15;;;12.68;;
10945;SDS011;5525;42.648;23.368;2022-10-31T08:50:15;17.23;;;13.57;;
10945;SDS011;5525;42.648;23.368;2022-10-31T08:52:44;17.10;;;13.52;;
10945;SDS011;5525;42.648;23.368;2022-10-31T08:55:11;20.35;;;13.50;;
10945;SDS011;5525;42.648;23.368;2022-10-31T08:57:37;21.23;;;14.30;;
10945;SDS011;5525;42.648;23.368;2022-10-31T09:00:05;18.98;;;13.38;;
10945;SDS011;5525;42.648;23.368;2022-10-31T09:02:33;15.48;;;12.68;;
10945;SDS011;5525;42.648;23.368;2022-10-31T09:05:00;18.75;;;13.50;;
10945;SDS011;5525;42.648;23.368;2022-10-31T09:07:26;20.08;;;12.48;;
10945;SDS011;5525;42.648;23.368;2022-10-31T09:09:55;18.63;;;12.13;;
10945;SDS011;5525;42.648;23.368;2022-10-31T09:12:22;22.80;;;13.35;;
10945;SDS011;5525;42.648;23.368;2022-10-31T09:14:50;18.77;;;11.25;;
10945;SDS011;5525;42.648;23.368;2022-10-31T09:17:17;15.90;;;11.20;;
10945;SDS011;5525;42.648;23.368;2022-10-31T09:19:43;14.68;;;10.77;;
10945;SDS011;5525;42.648;23.368;2022-10-31T09:22:10;18.35;;;11.52;;
10945;SDS011;5525;42.648;23.368;2022-10-31T09:24:37;15.73;;;10.82;;
10945;SDS011;5525;42.648;23.368;2022-10-31T09:27:05;17.05;;;10.35;;
10945;SDS011;5525;42.648;23.368;2022-10-31T09:29:34;15.75;;;9.80;;
10945;SDS011;5525;42.648;23.368;2022-10-31T09:32:01;13.13;;;9.82;;
10945;SDS011;5525;42.648;23.368;2022-10-31T09:34:28;17.42;;;10.68;;
10945;SDS011;5525;42.648;23.368;2022-10-31T09:36:54;13.63;;;9.60;;
10945;SDS011;5525;42.648;23.368;2022-10-31T09:39:21;16.55;;;10.13;;
10945;SDS011;5525;42.648;23.368;2022-10-31T09:41:52;13.85;;;9.80;;
10945;SDS011;5525;42.648;23.368;2022-10-31T09:44:33;21.65;;;10.98;;
10945;SDS011;5525;42.648;23.368;2022-10-31T09:47:08;13.32;;;10.40;;
10945;SDS011;5525;42.648;23.368;2022-10-31T09:49:49;14.65;;;10.52;;
10945;SDS011;5525;42.648;23.368;2022-10-31T09:52:24;14.65;;;10.35;;
10945;SDS011;5525;42.648;23.368;2022-10-31T09:54:58;13.60;;;10.02;;
10945;SDS011;5525;42.648;23.368;2022-10-31T09:57:31;16.27;;;10.45;;
10945;SDS011;5525;42.648;23.368;2022-10-31T10:00:03;14.35;;;10.57;;
10945;SDS011;5525;42.648;23.368;2022-10-31T10:02:32;13.75;;;9.68;;
10945;SDS011;5525;42.648;23.368;2022-10-31T10:05:08;12.27;;;9.45;;
10945;SDS011;5525;42.648;23.368;2022-10-31T10:07:41;16.75;;;9.40;;
10945;SDS011;5525;42.648;23.368;2022-10-31T10:10:15;11.20;;;9.20;;
10945;SDS011;5525;42.648;23.368;2022-10-31T10:12:49;9.00;;;6.95;;
10945;SDS011;5525;42.648;23.368;2022-10-31T10:15:34;10.07;;;7.22;;
10945;SDS011;5525;42.648;23.368;2022-10-31T10:18:15;14.95;;;7.85;;
10945;SDS011;5525;42.648;23.368;2022-10-31T10:20:54;10.63;;;7.13;;
10945;SDS011;5525;42.648;23.368;2022-10-31T10:23:32;11.63;;;6.40;;
10945;SDS011;5525;42.648;23.368;2022-10-31T10:26:13;9.35;;;5.40;;
10945;SDS011;5525;42.648;23.368;2022-10-31T10:28:44;6.03;;;4.75;;
10945;SDS011;5525;42.648;23.368;2022-10-31T10:31:18;8.48;;;5.13;;
10945;SDS011;5525;42.648;23.368;2022-10-31T10:33:55;10.77;;;4.95;;
10945;SDS011;5525;42.648;23.368;2022-10-31T10:36:28;10.25;;;5.15;;
10945;SDS011;5525;42.648;23.368;2022-10-31T10:39:02;8.82;;;5.40;;
10945;SDS011;5525;42.648;23.368;2022-10-31T10:41:41;6.50;;;4.13;;
10945;SDS011;5525;42.648;23.368;2022-10-31T10:44:12;8.02;;;4.40;;
10945;SDS011;5525;42.648;23.368;2022-10-31T10:46:41;4.82;;;3.65;;
10945;SDS011;5525;42.648;23.368;2022-10-31T10:49:29;6.60;;;3.72;;
10945;SDS011;5525;42.648;23.368;2022-10-31T10:52:03;8.27;;;4.00;;
10945;SDS011;5525;42.648;23.368;2022-10-31T10:54:41;6.00;;;3.85;;
10945;SDS011;5525;42.648;23.368;2022-10-31T10:57:19;6.78;;;3.60;;
10945;SDS011;5525;42.648;23.368;2022-10-31T10:59:57;7.53;;;3.97;;
10945;SDS011;5525;42.648;23.368;2022-10-31T11:02:30;7.22;;;4.18;;
10945;SDS011;5525;42.648;23.368;2022-10-31T11:05:00;8.15;;;3.60;;
10945;SDS011;5525;42.648;23.368;2022-10-31T11:07:37;9.27;;;3.70;;
10945;SDS011;5525;42.648;23.368;2022-10-31T11:10:05;6.97;;;3.40;;
10945;SDS011;5525;42.648;23.368;2022-10-31T11:12:38;10.27;;;3.42;;
10945;SDS011;5525;42.648;23.368;2022-10-31T11:15:07;8.38;;;3.50;;
10945;SDS011;5525;42.648;23.368;2022-10-31T11:17:47;8.98;;;3.75;;
10945;SDS011;5525;42.648;23.368;2022-10-31T11:23:16;7.88;;;3.47;;
10945;SDS011;5525;42.648;23.368;2022-10-31T11:25:48;6.43;;;3.55;;
10945;SDS011;5525;42.648;23.368;2022-10-31T11:28:17;7.78;;;3.40;;
10945;SDS011;5525;42.648;23.368;2022-10-31T11:30:45;6.03;;;3.10;;
10945;SDS011;5525;42.648;23.368;2022-10-31T11:33:18;4.68;;;3.40;;
10945;SDS011;5525;42.648;23.368;2022-10-31T11:35:48;8.15;;;3.30;;
10945;SDS011;5525;42.648;23.368;2022-10-31T11:38:15;5.13;;;3.15;;
10945;SDS011;5525;42.648;23.368;2022-10-31T11:40:56;7.45;;;3.47;;
10945;SDS011;5525;42.648;23.368;2022-10-31T11:43:24;5.95;;;3.25;;
10945;SDS011;5525;42.648;23.368;2022-10-31T11:45:52;7.32;;;3.28;;
10945;SDS011;5525;42.648;23.368;2022-10-31T11:48:22;11.40;;;3.35;;
10945;SDS011;5525;42.648;23.368;2022-10-31T11:50:51;8.23;;;3.30;;
10945;SDS011;5525;42.648;23.368;2022-10-31T11:53:24;6.55;;;3.47;;
10945;SDS011;5525;42.648;23.368;2022-10-31T11:56:01;7.22;;;3.50;;
10945;SDS011;5525;42.648;23.368;2022-10-31T11:58:31;5.65;;;3.17;;
10945;SDS011;5525;42.648;23.368;2022-10-31T12:00:58;8.18;;;3.50;;
10945;SDS011;5525;42.648;23.368;2022-10-31T12:03:29;8.90;;;3.47;;
10945;SDS011;5525;42.648;23.368;2022-10-31T12:06:09;9.50;;;3.75;;
10945;SDS011;5525;42.648;23.368;2022-10-31T12:08:40;7.47;;;3.65;;
10945;SDS011;5525;42.648;23.368;2022-10-31T12:11:11;8.57;;;4.50;;
10945;SDS011;5525;42.648;23.368;2022-10-31T12:13:48;7.03;;;3.90;;
10945;SDS011;5525;42.648;23.368;2022-10-31T12:16:26;9.93;;;3.88;;
10945;SDS011;5525;42.648;23.368;2022-10-31T12:19:00;5.68;;;3.95;;
10945;SDS011;5525;42.648;23.368;2022-10-31T12:21:47;7.18;;;3.28;;
10945;SDS011;5525;42.648;23.368;2022-10-31T12:24:28;5.50;;;3.30;;
10945;SDS011;5525;42.648;23.368;2022-10-31T12:27:09;6.25;;;3.30;;
10945;SDS011;5525;42.648;23.368;2022-10-31T12:29:50;6.50;;;3.50;;
10945;SDS011;5525;42.648;23.368;2022-10-31T12:32:29;8.65;;;4.20;;
10945;SDS011;5525;42.648;23.368;2022-10-31T12:35:20;9.27;;;3.97;;
10945;SDS011;5525;42.648;23.368;2022-10-31T12:37:59;9.68;;;3.50;;
10945;SDS011;5525;42.648;23.368;2022-10-31T12:40:42;6.55;;;3.80;;
10945;SDS011;5525;42.648;23.368;2022-10-31T12:43:22;8.25;;;3.20;;
10945;SDS011;5525;42.648;23.368;2022-10-31T12:46:01;5.55;;;3.35;;
10945;SDS011;5525;42.648;23.368;2022-10-31T12:48:36;6.93;;;3.55;;
10945;SDS011;5525;42.648;23.368;2022-10-31T12:51:18;7.30;;;3.60;;
10945;SDS011;5525;42.648;23.368;2022-10-31T12:54:01;6.28;;;3.58;;
10945;SDS011;5525;42.648;23.368;2022-10-31T12:56:44;6.55;;;3.83;;
10945;SDS011;5525;42.648;23.368;2022-10-31T12:59:21;8.15;;;3.30;;
10945;SDS011;5525;42.648;23.368;2022-10-31T13:01:58;6.10;;;3.40;;
10945;SDS011;5525;42.648;23.368;2022-10-31T13:04:35;8.50;;;3.60;;
10945;SDS011;5525;42.648;23.368;2022-10-31T13:07:11;4.85;;;3.50;;
10945;SDS011;5525;42.648;23.368;2022-10-31T13:09:42;6.07;;;3.72;;
10945;SDS011;5525;42.648;23.368;2022-10-31T13:12:15;5.20;;;3.00;;
10945;SDS011;5525;42.648;23.368;2022-10-31T13:14:46;8.35;;;3.50;;
10945;SDS011;5525;42.648;23.368;2022-10-31T13:17:22;5.97;;;3.10;;
10945;SDS011;5525;42.648;23.368;2022-10-31T13:19:54;8.43;;;3.40;;
10945;SDS011;5525;42.648;23.368;2022-10-31T13:22:31;8.32;;;3.20;;
10945;SDS011;5525;42.648;23.368;2022-10-31T13:25:02;8.48;;;3.50;;
10945;SDS011;5525;42.648;23.368;2022-10-31T13:27:40;5.03;;;3.17;;
10945;SDS011;5525;42.648;23.368;2022-10-31T13:30:13;5.85;;;3.10;;
10945;SDS011;5525;42.648;23.368;2022-10-31T13:32:43;9.93;;;3.45;;
10945;SDS011;5525;42.648;23.368;2022-10-31T13:35:16;7.70;;;3.78;;
10945;SDS011;5525;42.648;23.368;2022-10-31T13:37:51;6.05;;;3.95;;
10945;SDS011;5525;42.648;23.368;2022-10-31T13:40:30;5.75;;;3.10;;
10945;SDS011;5525;42.648;23.368;2022-10-31T13:43:03;5.10;;;3.30;;
10945;SDS011;5525;42.648;23.368;2022-10-31T13:45:47;6.07;;;3.35;;
10945;SDS011;5525;42.648;23.368;2022-10-31T13:48:29;10.07;;;3.78;;
10945;SDS011;5525;42.648;23.368;2022-10-31T13:51:04;7.80;;;3.92;;
10945;SDS011;5525;42.648;23.368;2022-10-31T13:53:38;6.75;;;3.95;;
10945;SDS011;5525;42.648;23.368;2022-10-31T13:56:21;8.77;;;3.65;;
10945;SDS011;5525;42.648;23.368;2022-10-31T14:01:48;9.77;;;4.47;;
10945;SDS011;5525;42.648;23.368;2022-10-31T14:04:18;5.63;;;2.95;;
10945;SDS011;5525;42.648;23.368;2022-10-31T14:06:56;14.95;;;5.85;;
10945;SDS011;5525;42.648;23.368;2022-10-31T14:09:28;10.27;;;4.18;;
10945;SDS011;5525;42.648;23.368;2022-10-31T14:11:59;7.03;;;4.10;;
10945;SDS011;5525;42.648;23.368;2022-10-31T14:17:22;8.70;;;4.43;;
10945;SDS011;5525;42.648;23.368;2022-10-31T14:19:59;4.95;;;3.58;;
10945;SDS011;5525;42.648;23.368;2022-10-31T14:22:29;7.88;;;3.67;;
10945;SDS011;5525;42.648;23.368;2022-10-31T14:24:58;8.10;;;4.00;;
10945;SDS011;5525;42.648;23.368;2022-10-31T14:27:43;9.27;;;4.10;;
10945;SDS011;5525;42.648;23.368;2022-10-31T14:30:16;9.30;;;3.92;;
10945;SDS011;5525;42.648;23.368;2022-10-31T14:32:49;8.80;;;3.50;;
10945;SDS011;5525;42.648;23.368;2022-10-31T14:35:18;7.18;;;3.45;;
10945;SDS011;5525;42.648;23.368;2022-10-31T14:37:56;6.95;;;3.30;;
10945;SDS011;5525;42.648;23.368;2022-10-31T14:40:46;7.03;;;4.10;;
10945;SDS011;5525;42.648;23.368;2022-10-31T14:43:31;10.48;;;4.13;;
10945;SDS011;5525;42.648;23.368;2022-10-31T14:46:12;12.20;;;4.15;;
10945;SDS011;5525;42.648;23.368;2022-10-31T14:51:35;11.88;;;5.28;;
10945;SDS011;5525;42.648;23.368;2022-10-31T14:54:05;11.90;;;4.05;;
10945;SDS011;5525;42.648;23.368;2022-10-31T14:56:46;8.82;;;3.88;;
10945;SDS011;5525;42.648;23.368;2022-10-31T14:59:17;11.10;;;3.88;;
10945;SDS011;5525;42.648;23.368;2022-10-31T15:01:50;10.40;;;3.90;;
10945;SDS011;5525;42.648;23.368;2022-10-31T15:04:23;12.55;;;4.00;;
10945;SDS011;5525;42.648;23.368;2022-10-31T15:06:54;12.73;;;4.53;;
10945;SDS011;5525;42.648;23.368;2022-10-31T15:09:29;12.27;;;4.85;;
10945;SDS011;5525;42.648;23.368;2022-10-31T15:11:59;10.40;;;4.32;;